createdAt,value
2022-10-30T00:00:34.330Z,100740.00
2022-10-30T00:03:02.546Z,100740.50
2022-10-30T00:05:30.765Z,100733.59
2022-10-30T00:07:59.723Z,100735.84
2022-10-30T00:10:29.168Z,100730.59
2022-10-30T00:12:57.954Z,100729.53
2022-10-30T00:15:25.733Z,100729.50
2022-10-30T00:17:54.316Z,100719.00
2022-10-30T00:20:22.136Z,100722.81
2022-10-30T00:22:49.901Z,100731.84
2022-10-30T00:25:17.788Z,100723.75
2022-10-30T00:27:46.919Z,100715.09
2022-10-30T00:30:15.446Z,100707.84
2022-10-30T00:32:43.873Z,100716.53
2022-10-30T00:35:11.741Z,100718.53
2022-10-30T00:37:39.816Z,100716.72
2022-10-30T00:40:14.871Z,100717.41
2022-10-30T00:42:43.307Z,100715.28
2022-10-30T00:45:14.678Z,100724.53
2022-10-30T00:47:45.093Z,100705.91
2022-10-30T00:50:17.565Z,100718.47
2022-10-30T00:52:49.930Z,100717.72
2022-10-30T00:55:21.950Z,100717.41
2022-10-30T00:57:50.667Z,100717.59
2022-10-30T01:00:21.713Z,100727.44
2022-10-30T01:02:51.009Z,100726.63
2022-10-30T01:05:22.714Z,100713.91
2022-10-30T01:07:50.527Z,100712.47
2022-10-30T01:10:18.907Z,100714.09
2022-10-30T01:12:49.057Z,100710.28
2022-10-30T01:15:17.167Z,100706.13
2022-10-30T01:18:08.380Z,100711.50
2022-10-30T01:20:56.977Z,100702.56
2022-10-30T01:23:38.621Z,100681.22
2022-10-30T01:26:16.934Z,100699.25
2022-10-30T01:28:58.809Z,100707.97
2022-10-30T01:31:39.636Z,100712.47
2022-10-30T01:34:19.125Z,100710.16
2022-10-30T01:36:53.173Z,100723.25
2022-10-30T01:39:25.061Z,100706.16
2022-10-30T01:41:53.171Z,100703.44
2022-10-30T01:44:25.431Z,100694.84
2022-10-30T01:47:10.749Z,100699.78
2022-10-30T01:50:14.557Z,100690.09
2022-10-30T01:52:50.519Z,100694.84
2022-10-30T01:55:30.626Z,100695.84
2022-10-30T01:58:03.549Z,100695.56
2022-10-30T02:00:31.301Z,100701.84
2022-10-30T02:02:59.536Z,100699.78
2022-10-30T02:05:37.448Z,100697.16
2022-10-30T02:08:05.645Z,100704.41
2022-10-30T02:10:36.049Z,100696.00
2022-10-30T02:13:04.334Z,100692.31
2022-10-30T02:15:33.110Z,100685.28
2022-10-30T02:18:01.529Z,100693.88
2022-10-30T02:20:31.239Z,100709.63
2022-10-30T02:22:59.614Z,100714.56
2022-10-30T02:25:28.204Z,100709.28
2022-10-30T02:27:56.005Z,100702.38
2022-10-30T02:30:23.783Z,100705.84
2022-10-30T02:32:51.546Z,100705.41
2022-10-30T02:35:19.226Z,100703.22
2022-10-30T02:37:49.874Z,100707.34
2022-10-30T02:40:17.846Z,100705.84
2022-10-30T02:42:45.587Z,100712.84
2022-10-30T02:45:13.431Z,100707.22
2022-10-30T02:47:41.185Z,100705.63
2022-10-30T02:50:10.308Z,100720.75
2022-10-30T02:52:38.094Z,100706.06
2022-10-30T02:55:09.764Z,100703.22
2022-10-30T02:57:38.445Z,100709.84
2022-10-30T03:00:07.446Z,100712.38
2022-10-30T03:02:35.240Z,100721.69
2022-10-30T03:05:02.962Z,100717.38
2022-10-30T03:07:30.886Z,100714.03
2022-10-30T03:09:58.684Z,100719.69
2022-10-30T03:12:27.774Z,100716.94
2022-10-30T03:14:55.497Z,100728.59
2022-10-30T03:17:23.372Z,100719.22
2022-10-30T03:19:51.462Z,100708.53
2022-10-30T03:22:19.211Z,100684.44
2022-10-30T03:24:46.970Z,100692.72
2022-10-30T03:27:14.768Z,100701.91
2022-10-30T03:29:43.860Z,100700.38
2022-10-30T03:32:12.572Z,100702.16
2022-10-30T03:34:40.441Z,100711.94
2022-10-30T03:37:08.191Z,100716.06
2022-10-30T03:39:36.123Z,100721.97
2022-10-30T03:42:03.926Z,100710.97
2022-10-30T03:44:31.745Z,100708.16
2022-10-30T03:47:00.886Z,100710.06
2022-10-30T03:49:28.613Z,100711.94
2022-10-30T03:51:56.375Z,100719.56
2022-10-30T03:54:24.204Z,100718.78
2022-10-30T03:56:52.032Z,100710.97
2022-10-30T03:59:19.776Z,100703.50
2022-10-30T04:01:48.057Z,100704.06
2022-10-30T04:04:17.535Z,100712.97
2022-10-30T04:06:45.297Z,100712.81
2022-10-30T04:09:12.985Z,100709.13
2022-10-30T04:11:40.722Z,100708.75
2022-10-30T04:14:08.626Z,100712.22
2022-10-30T04:16:36.317Z,100713.06
2022-10-30T04:19:04.048Z,100712.13
2022-10-30T04:21:33.612Z,100715.38
2022-10-30T04:24:01.281Z,100705.75
2022-10-30T04:26:29.421Z,100713.88
2022-10-30T04:28:57.250Z,100712.59
2022-10-30T04:31:25.053Z,100708.97
2022-10-30T04:33:52.793Z,100709.84
2022-10-30T04:36:21.801Z,100703.50
2022-10-30T04:38:51.350Z,100706.81
2022-10-30T04:41:19.094Z,100710.00
2022-10-30T04:43:49.437Z,100705.22
2022-10-30T04:46:17.510Z,100699.63
2022-10-30T04:48:45.302Z,100687.19
2022-10-30T04:51:13.057Z,100699.69
2022-10-30T04:53:41.002Z,100696.97
2022-10-30T04:56:10.618Z,100698.91
2022-10-30T04:58:38.445Z,100694.56
2022-10-30T05:01:07.387Z,100690.94
2022-10-30T05:03:36.058Z,100690.09
2022-10-30T05:06:06.832Z,100693.06
2022-10-30T05:08:35.107Z,100693.66
2022-10-30T05:11:05.297Z,100695.78
2022-10-30T05:13:34.487Z,100705.41
2022-10-30T05:16:02.286Z,100693.75
2022-10-30T05:18:30.147Z,100714.25
2022-10-30T05:20:57.971Z,100701.53
2022-10-30T05:23:25.686Z,100702.81
2022-10-30T05:25:53.657Z,100706.06
2022-10-30T05:28:21.483Z,100690.78
2022-10-30T05:30:54.050Z,100692.91
2022-10-30T05:33:23.431Z,100694.13
2022-10-30T05:35:51.364Z,100695.34
2022-10-30T05:38:19.163Z,100695.91
2022-10-30T05:40:47.660Z,100693.72
2022-10-30T05:43:15.472Z,100690.25
2022-10-30T05:45:43.863Z,100694.72
2022-10-30T05:48:12.913Z,100679.59
2022-10-30T05:50:40.707Z,100686.44
2022-10-30T05:53:08.606Z,100692.91
2022-10-30T05:55:36.544Z,100692.06
2022-10-30T05:58:06.521Z,100693.34
2022-10-30T06:00:36.293Z,100693.56
2022-10-30T06:03:06.054Z,100702.69
2022-10-30T06:05:36.916Z,100710.78
2022-10-30T06:08:06.402Z,100695.47
2022-10-30T06:10:34.341Z,100712.22
2022-10-30T06:13:03.958Z,100714.44
2022-10-30T06:15:32.121Z,100712.16
2022-10-30T06:18:00.777Z,100718.22
2022-10-30T06:20:30.885Z,100713.41
2022-10-30T06:23:02.275Z,100715.59
2022-10-30T06:25:33.201Z,100716.84
2022-10-30T06:28:04.590Z,100720.31
2022-10-30T06:30:32.448Z,100716.38
2022-10-30T06:33:00.776Z,100712.84
2022-10-30T06:35:29.701Z,100718.38
2022-10-30T06:38:00.067Z,100712.44
2022-10-30T06:40:30.520Z,100734.38
2022-10-30T06:42:59.341Z,100736.00
2022-10-30T06:45:27.360Z,100730.34
2022-10-30T06:47:55.384Z,100738.91
2022-10-30T06:50:24.323Z,100718.25
2022-10-30T06:52:52.129Z,100735.63
2022-10-30T06:55:19.876Z,100742.97
2022-10-30T06:57:54.788Z,100745.25
2022-10-30T07:00:22.669Z,100739.88
2022-10-30T07:02:58.833Z,100742.31
2022-10-30T07:05:27.018Z,100735.16
2022-10-30T07:07:58.047Z,100737.28
2022-10-30T07:10:25.874Z,100734.94
2022-10-30T07:12:57.425Z,100742.13
2022-10-30T07:15:25.959Z,100728.50
2022-10-30T07:17:56.053Z,100736.69
2022-10-30T07:20:24.645Z,100736.06
2022-10-30T07:22:52.869Z,100733.19
2022-10-30T07:25:21.348Z,100744.22
2022-10-30T07:27:50.658Z,100744.97
2022-10-30T07:30:21.447Z,100741.88
2022-10-30T07:32:58.179Z,100744.53
2022-10-30T07:35:26.264Z,100740.53
2022-10-30T07:37:54.373Z,100746.38
2022-10-30T07:40:22.460Z,100738.13
2022-10-30T07:42:50.229Z,100733.41
2022-10-30T07:45:21.576Z,100754.69
2022-10-30T07:47:50.209Z,100750.19
2022-10-30T07:50:18.205Z,100749.13
2022-10-30T07:52:45.965Z,100756.84
2022-10-30T07:55:13.864Z,100753.06
2022-10-30T07:57:43.113Z,100759.38
2022-10-30T08:00:13.359Z,100757.78
2022-10-30T08:02:42.862Z,100750.41
2022-10-30T08:05:11.063Z,100756.47
2022-10-30T08:07:39.834Z,100758.16
2022-10-30T08:10:09.378Z,100759.66
2022-10-30T08:12:38.249Z,100755.22
2022-10-30T08:15:07.119Z,100749.72
2022-10-30T08:17:44.642Z,100750.47
2022-10-30T08:20:14.081Z,100760.72
2022-10-30T08:22:46.948Z,100748.06
2022-10-30T08:25:15.402Z,100745.66
2022-10-30T08:27:54.594Z,100751.94
2022-10-30T08:30:23.049Z,100756.72
2022-10-30T08:32:52.253Z,100758.28
2022-10-30T08:35:20.483Z,100758.53
2022-10-30T08:37:48.730Z,100750.72
2022-10-30T08:40:16.931Z,100751.44
2022-10-30T08:42:52.053Z,100760.22
2022-10-30T08:45:20.119Z,100752.50
2022-10-30T08:47:48.140Z,100760.47
2022-10-30T08:50:17.549Z,100749.38
2022-10-30T08:52:48.230Z,100756.50
2022-10-30T08:55:18.640Z,100752.28
2022-10-30T08:57:46.694Z,100758.56
2022-10-30T09:00:14.942Z,100751.88
2022-10-30T09:02:42.893Z,100752.25
2022-10-30T09:05:10.848Z,100740.56
2022-10-30T09:07:40.061Z,100742.00
2022-10-30T09:10:09.064Z,100717.69
2022-10-30T09:12:38.324Z,100736.31
2022-10-30T09:15:08.238Z,100722.38
2022-10-30T09:17:36.501Z,100730.88
2022-10-30T09:20:05.313Z,100731.44
2022-10-30T09:22:33.213Z,100730.38
2022-10-30T09:25:02.431Z,100732.13
2022-10-30T09:27:30.225Z,100727.00
2022-10-30T09:29:58.136Z,100711.59
2022-10-30T09:32:26.011Z,100730.47
2022-10-30T09:34:53.808Z,100730.63
2022-10-30T09:37:23.371Z,100741.22
2022-10-30T09:39:51.200Z,100725.22
2022-10-30T09:42:45.655Z,100726.81
2022-10-30T09:45:46.733Z,100736.63
2022-10-30T09:48:43.417Z,100727.06
2022-10-30T09:51:23.174Z,100713.06
2022-10-30T09:54:03.541Z,100720.03
2022-10-30T09:56:35.749Z,100727.16
2022-10-30T09:59:11.997Z,100713.75
2022-10-30T10:01:46.397Z,100712.19
2022-10-30T10:04:26.787Z,100716.41
2022-10-30T10:07:01.587Z,100711.97
2022-10-30T10:09:32.262Z,100720.66
2022-10-30T10:12:05.746Z,100717.75
2022-10-30T10:14:39.861Z,100721.13
2022-10-30T10:17:14.202Z,100716.91
2022-10-30T10:19:50.095Z,100720.03
2022-10-30T10:22:22.648Z,100722.97
2022-10-30T10:24:50.919Z,100718.81
2022-10-30T10:27:31.033Z,100710.09
2022-10-30T10:30:04.594Z,100711.78
2022-10-30T10:32:50.051Z,100705.19
2022-10-30T10:35:29.377Z,100694.97
2022-10-30T10:38:05.078Z,100706.81
2022-10-30T10:40:51.297Z,100706.56
2022-10-30T10:43:32.453Z,100707.13
2022-10-30T10:46:23.016Z,100706.44
2022-10-30T10:49:05.174Z,100689.91
2022-10-30T10:51:37.293Z,100688.75
2022-10-30T10:54:12.120Z,100684.34
2022-10-30T10:56:43.601Z,100684.25
2022-10-30T10:59:19.082Z,100672.78
2022-10-30T11:01:55.272Z,100676.88
2022-10-30T11:04:32.129Z,100672.59
2022-10-30T11:07:03.648Z,100663.38
2022-10-30T11:09:31.436Z,100666.84
2022-10-30T11:11:59.400Z,100663.81
2022-10-30T11:14:32.744Z,100658.56
2022-10-30T11:17:11.981Z,100658.47
2022-10-30T11:19:39.848Z,100651.81
2022-10-30T11:22:19.965Z,100652.22
2022-10-30T11:24:47.694Z,100650.03
2022-10-30T11:27:26.961Z,100655.66
2022-10-30T11:29:57.424Z,100635.75
2022-10-30T11:32:29.224Z,100648.09
2022-10-30T11:35:12.139Z,100647.19
2022-10-30T11:37:41.507Z,100643.03
2022-10-30T11:40:18.460Z,100622.00
2022-10-30T11:42:49.508Z,100641.97
2022-10-30T11:45:19.815Z,100634.72
2022-10-30T11:47:49.515Z,100611.31
2022-10-30T11:50:21.217Z,100639.72
2022-10-30T11:52:51.823Z,100629.00
2022-10-30T11:55:21.835Z,100629.84
2022-10-30T11:57:52.199Z,100620.25
2022-10-30T12:00:22.375Z,100625.25
2022-10-30T12:02:53.454Z,100627.47
2022-10-30T12:05:34.351Z,100616.59
2022-10-30T12:08:29.049Z,100614.00
2022-10-30T12:11:02.623Z,100625.00
2022-10-30T12:13:37.465Z,100618.41
2022-10-30T12:16:17.590Z,100620.97
2022-10-30T12:18:58.194Z,100621.75
2022-10-30T12:21:27.100Z,100620.91
2022-10-30T12:23:58.791Z,100607.03
2022-10-30T12:26:27.361Z,100601.31
2022-10-30T12:29:00.691Z,100611.69
2022-10-30T12:31:38.009Z,100602.47
2022-10-30T12:34:41.370Z,100597.75
2022-10-30T12:37:16.346Z,100572.75
2022-10-30T12:39:52.308Z,100593.56
2022-10-30T12:42:23.021Z,100588.47
2022-10-30T12:44:56.419Z,100594.47
2022-10-30T12:47:30.775Z,100604.13
2022-10-30T12:52:43.398Z,100579.47
2022-10-30T12:55:19.472Z,100586.00
2022-10-30T12:57:52.073Z,100584.69
2022-10-30T13:00:20.553Z,100580.81
2022-10-30T13:02:56.897Z,100586.59
2022-10-30T13:05:36.903Z,100576.56
2022-10-30T13:08:27.254Z,100573.63
2022-10-30T13:11:01.029Z,100577.72
2022-10-30T13:13:33.591Z,100569.19
2022-10-30T13:16:04.194Z,100568.25
2022-10-30T13:18:32.957Z,100568.25
2022-10-30T13:21:18.032Z,100575.88
2022-10-30T13:23:52.391Z,100573.56
2022-10-30T13:26:29.927Z,100572.97
2022-10-30T13:29:06.993Z,100571.69
2022-10-30T13:31:48.709Z,100572.81
2022-10-30T13:34:29.623Z,100565.63
2022-10-30T13:37:04.508Z,100574.06
2022-10-30T13:39:40.386Z,100573.84
2022-10-30T13:42:25.673Z,100579.91
2022-10-30T13:45:06.453Z,100549.38
2022-10-30T13:47:45.226Z,100566.44
2022-10-30T13:50:27.749Z,100558.84
2022-10-30T13:53:01.574Z,100569.56
2022-10-30T13:55:32.085Z,100580.25
2022-10-30T13:58:06.252Z,100559.97
2022-10-30T14:00:54.677Z,100556.75
2022-10-30T14:03:34.768Z,100557.81
2022-10-30T14:06:12.091Z,100565.31
2022-10-30T14:08:47.451Z,100565.53
2022-10-30T14:11:15.854Z,100574.06
2022-10-30T14:13:52.690Z,100565.97
2022-10-30T14:16:36.629Z,100561.78
2022-10-30T14:19:05.458Z,100556.44
2022-10-30T14:21:44.840Z,100567.53
2022-10-30T14:24:21.319Z,100571.78
2022-10-30T14:26:55.876Z,100568.75
2022-10-30T14:29:42.914Z,100567.59
2022-10-30T14:32:42.964Z,100564.88
2022-10-30T14:35:36.703Z,100578.94
2022-10-30T14:38:35.682Z,100574.84
2022-10-30T14:41:41.881Z,100577.28
2022-10-30T14:44:23.867Z,100561.28
2022-10-30T14:47:06.452Z,100569.31
2022-10-30T14:49:51.378Z,100585.19
2022-10-30T14:52:29.799Z,100568.03
2022-10-30T14:55:07.135Z,100579.31
2022-10-30T14:57:48.254Z,100572.66
2022-10-30T15:00:48.375Z,100587.84
2022-10-30T15:03:34.655Z,100585.63
2022-10-30T15:06:13.174Z,100587.78
2022-10-30T15:08:55.597Z,100577.72
2022-10-30T15:11:38.529Z,100575.25
2022-10-30T15:14:21.076Z,100583.75
2022-10-30T15:16:52.250Z,100584.66
2022-10-30T15:19:22.805Z,100576.16
2022-10-30T15:21:53.783Z,100587.88
2022-10-30T15:24:26.923Z,100576.38
2022-10-30T15:27:01.090Z,100593.78
2022-10-30T15:29:33.330Z,100583.69
2022-10-30T15:32:03.951Z,100592.28
2022-10-30T15:34:34.095Z,100594.84
2022-10-30T15:37:11.793Z,100592.50
2022-10-30T15:39:39.697Z,100599.72
2022-10-30T15:42:07.499Z,100599.47
2022-10-30T15:44:46.157Z,100593.19
2022-10-30T15:47:18.676Z,100576.94
2022-10-30T15:49:51.877Z,100597.59
2022-10-30T15:52:23.221Z,100602.03
2022-10-30T15:54:57.624Z,100597.63
2022-10-30T15:58:13.127Z,100605.88
2022-10-30T16:00:22.784Z,100604.47
2022-10-30T16:03:01.416Z,100608.03
2022-10-30T16:05:30.172Z,100602.50
2022-10-30T16:07:59.908Z,100616.19
2022-10-30T16:10:35.293Z,100596.56
2022-10-30T16:13:04.766Z,100609.53
2022-10-30T16:15:35.643Z,100593.16
2022-10-30T16:18:14.708Z,100628.41
2022-10-30T16:20:46.003Z,100626.50
2022-10-30T16:23:15.162Z,100627.28
2022-10-30T16:25:47.288Z,100633.81
2022-10-30T16:28:31.315Z,100632.91
2022-10-30T16:31:02.077Z,100616.31
2022-10-30T16:33:32.918Z,100628.38
2022-10-30T16:36:03.054Z,100632.75
2022-10-30T16:38:35.199Z,100632.16
2022-10-30T16:41:05.233Z,100623.56
2022-10-30T16:43:34.657Z,100627.13
2022-10-30T16:46:35.704Z,100606.81
2022-10-30T16:49:08.343Z,100605.06
2022-10-30T16:51:39.335Z,100639.53
2022-10-30T16:54:08.148Z,100641.34
2022-10-30T16:56:36.557Z,100637.91
2022-10-30T16:59:12.997Z,100645.78
2022-10-30T17:01:41.643Z,100649.59
2022-10-30T17:04:17.394Z,100638.63
2022-10-30T17:06:46.414Z,100650.38
2022-10-30T17:09:23.291Z,100641.06
2022-10-30T17:12:06.103Z,100654.03
2022-10-30T17:14:45.520Z,100647.72
2022-10-30T17:17:28.477Z,100663.88
2022-10-30T17:20:00.687Z,100672.78
2022-10-30T17:22:30.053Z,100663.94
2022-10-30T17:25:01.068Z,100640.25
2022-10-30T17:27:49.446Z,100654.72
2022-10-30T17:30:35.998Z,100684.69
2022-10-30T17:33:23.451Z,100684.63
2022-10-30T17:38:22.492Z,100695.00
2022-10-30T17:40:50.668Z,100694.91
2022-10-30T17:43:18.503Z,100680.66
2022-10-30T17:45:46.371Z,100696.63
2022-10-30T17:48:16.807Z,100699.66
2022-10-30T17:50:46.059Z,100680.47
2022-10-30T17:53:50.539Z,100692.38
2022-10-30T17:59:07.803Z,100679.75
2022-10-30T18:01:36.145Z,100687.72
2022-10-30T18:04:17.896Z,100703.84
2022-10-30T18:06:50.103Z,100705.88
2022-10-30T18:09:19.260Z,100726.47
2022-10-30T18:11:47.175Z,100723.03
2022-10-30T18:14:18.990Z,100695.94
2022-10-30T18:18:00.483Z,100728.13
2022-10-30T18:20:28.829Z,100724.13
2022-10-30T18:22:56.975Z,100728.28
2022-10-30T18:25:29.641Z,100721.53
2022-10-30T18:27:57.573Z,100753.06
2022-10-30T18:30:26.225Z,100757.94
2022-10-30T18:32:54.009Z,100749.25
2022-10-30T18:35:28.176Z,100749.72
2022-10-30T18:37:55.978Z,100747.81
2022-10-30T18:40:24.374Z,100752.78
2022-10-30T18:42:53.551Z,100745.91
2022-10-30T18:45:24.386Z,100729.19
2022-10-30T18:47:53.368Z,100759.00
2022-10-30T18:50:22.987Z,100754.00
2022-10-30T18:52:51.457Z,100747.09
2022-10-30T18:55:31.790Z,100726.06
2022-10-30T18:58:01.917Z,100760.88
2022-10-30T19:00:39.665Z,100760.03
2022-10-30T19:03:18.871Z,100753.75
2022-10-30T19:05:49.088Z,100764.53
2022-10-30T19:08:17.063Z,100773.94
2022-10-30T19:10:46.721Z,100766.56
2022-10-30T19:13:19.471Z,100759.78
2022-10-30T19:15:49.502Z,100758.72
2022-10-30T19:18:18.795Z,100776.44
2022-10-30T19:23:34.688Z,100769.84
2022-10-30T19:26:02.860Z,100770.56
2022-10-30T19:28:32.704Z,100755.91
2022-10-30T19:31:00.818Z,100777.69
2022-10-30T19:33:28.609Z,100767.09
2022-10-30T19:35:57.980Z,100770.66
2022-10-30T19:38:25.902Z,100780.88
2022-10-30T19:40:54.391Z,100780.38
2022-10-30T19:43:22.258Z,100779.97
2022-10-30T19:45:55.653Z,100767.59
2022-10-30T19:48:55.646Z,100782.09
2022-10-30T19:51:12.587Z,100776.19
2022-10-30T19:53:40.728Z,100787.22
2022-10-30T19:56:11.058Z,100751.44
2022-10-30T19:58:38.809Z,100781.72
2022-10-30T20:01:08.353Z,100783.59
2022-10-30T20:03:36.190Z,100788.00
2022-10-30T20:06:04.078Z,100789.06
2022-10-30T20:08:32.068Z,100789.91
2022-10-30T20:11:00.915Z,100790.09
2022-10-30T20:13:29.687Z,100793.78
2022-10-30T20:15:59.773Z,100800.47
2022-10-30T20:18:31.399Z,100769.59
2022-10-30T20:21:01.088Z,100797.03
2022-10-30T20:23:29.923Z,100768.56
2022-10-30T20:26:01.206Z,100798.19
2022-10-30T20:28:32.728Z,100812.59
2022-10-30T20:31:00.945Z,100812.75
2022-10-30T20:33:30.410Z,100810.41
2022-10-30T20:35:58.221Z,100815.25
2022-10-30T20:38:29.059Z,100798.66
2022-10-30T20:40:58.350Z,100815.09
2022-10-30T20:43:33.436Z,100815.34
2022-10-30T20:46:02.176Z,100813.91
2022-10-30T20:48:31.669Z,100816.41
2022-10-30T20:51:01.388Z,100820.31
2022-10-30T20:53:30.240Z,100819.47
2022-10-30T20:55:58.605Z,100826.53
2022-10-30T20:58:26.533Z,100827.00
2022-10-30T21:00:55.245Z,100831.00
2022-10-30T21:03:23.265Z,100834.19
2022-10-30T21:05:56.077Z,100822.38
2022-10-30T21:08:23.945Z,100832.59
2022-10-30T21:10:51.794Z,100844.84
2022-10-30T21:13:19.543Z,100843.19
2022-10-30T21:15:47.430Z,100843.03
2022-10-30T21:18:15.296Z,100845.16
2022-10-30T21:20:43.222Z,100834.41
2022-10-30T21:23:13.017Z,100837.06
2022-10-30T21:25:40.977Z,100819.31
2022-10-30T21:28:08.814Z,100837.78
2022-10-30T21:30:36.798Z,100819.03
2022-10-30T21:33:05.103Z,100842.22
2022-10-30T21:35:32.997Z,100843.94
2022-10-30T21:38:02.324Z,100841.00
2022-10-30T21:40:31.583Z,100841.91
2022-10-30T21:43:03.047Z,100832.91
2022-10-30T21:45:32.557Z,100815.84
2022-10-30T21:48:01.137Z,100839.94
2022-10-30T21:50:28.946Z,100837.84
2022-10-30T21:52:56.957Z,100833.25
2022-10-30T21:55:24.983Z,100837.84
2022-10-30T21:57:54.904Z,100840.78
2022-10-30T22:00:22.993Z,100850.25
2022-10-30T22:02:51.900Z,100836.16
2022-10-30T22:05:19.764Z,100833.22
2022-10-30T22:07:47.480Z,100835.34
2022-10-30T22:10:15.256Z,100843.88
2022-10-30T22:12:43.002Z,100838.84
2022-10-30T22:15:12.276Z,100844.28
2022-10-30T22:17:39.997Z,100841.13
2022-10-30T22:20:09.388Z,100843.28
2022-10-30T22:22:37.082Z,100836.63
2022-10-30T22:25:05.084Z,100838.31
2022-10-30T22:27:32.846Z,100834.19
2022-10-30T22:30:00.582Z,100837.53
2022-10-30T22:32:29.664Z,100836.91
2022-10-30T22:34:58.812Z,100836.69
2022-10-30T22:37:26.640Z,100841.94
2022-10-30T22:39:54.383Z,100836.50
2022-10-30T22:42:22.311Z,100845.50
2022-10-30T22:44:50.306Z,100849.75
2022-10-30T22:47:18.161Z,100841.09
2022-10-30T22:49:47.267Z,100847.63
2022-10-30T22:52:15.234Z,100837.19
2022-10-30T22:54:43.088Z,100806.97
2022-10-30T22:57:10.910Z,100834.78
2022-10-30T22:59:38.777Z,100836.31
2022-10-30T23:02:06.690Z,100841.75
2022-10-30T23:04:34.568Z,100839.69
2022-10-30T23:07:03.649Z,100814.22
2022-10-30T23:09:31.626Z,100846.38
2022-10-30T23:11:59.544Z,100850.97
2022-10-30T23:14:27.367Z,100851.22
2022-10-30T23:16:55.237Z,100857.00
2022-10-30T23:19:23.035Z,100860.16
2022-10-30T23:21:50.812Z,100849.88
2022-10-30T23:24:19.934Z,100866.13
2022-10-30T23:26:47.727Z,100866.81
2022-10-30T23:29:15.531Z,100836.75
2022-10-30T23:31:43.901Z,100846.97
2022-10-30T23:34:13.710Z,100860.56
2022-10-30T23:36:42.258Z,100855.56
2022-10-30T23:39:12.300Z,100859.97
2022-10-30T23:41:41.825Z,100855.78
2022-10-30T23:44:12.985Z,100858.47
2022-10-30T23:46:40.881Z,100864.31
2022-10-30T23:49:08.767Z,100862.88
2022-10-30T23:51:36.614Z,100868.94
2022-10-30T23:54:04.598Z,100839.50
2022-10-30T23:56:32.443Z,100860.00
2022-10-30T23:59:01.682Z,100870.22
